sensor_id;sensor_type;location;lat;lon;timestamp;temperature;humidity
32217;DHT22;67098;51.140;4.088;2023-06-22T00:01:17;23.30;81.50
32217;DHT22;67098;51.140;4.088;2023-06-22T00:03:42;23.30;81.70
32217;DHT22;67098;51.140;4.088;2023-06-22T00:06:08;23.30;82.00
32217;DHT22;67098;51.140;4.088;2023-06-22T00:08:34;23.10;82.70
32217;DHT22;67098;51.140;4.088;2023-06-22T00:11:00;23.10;83.10
32217;DHT22;67098;51.140;4.088;2023-06-22T00:13:25;22.90;83.70
32217;DHT22;67098;51.140;4.088;2023-06-22T00:15:51;22.80;84.10
32217;DHT22;67098;51.140;4.088;2023-06-22T00:18:17;22.90;83.60
32217;DHT22;67098;51.140;4.088;2023-06-22T00:20:44;22.90;83.90
32217;DHT22;67098;51.140;4.088;2023-06-22T00:23:11;22.90;83.70
32217;DHT22;67098;51.140;4.088;2023-06-22T00:25:40;22.90;83.70
32217;DHT22;67098;51.140;4.088;2023-06-22T00:28:07;22.90;83.60
32217;DHT22;67098;51.140;4.088;2023-06-22T00:30:33;22.90;83.80
32217;DHT22;67098;51.140;4.088;2023-06-22T00:33:00;22.90;83.90
32217;DHT22;67098;51.140;4.088;2023-06-22T00:35:26;22.80;84.50
32217;DHT22;67098;51.140;4.088;2023-06-22T00:37:58;22.80;84.70
32217;DHT22;67098;51.140;4.088;2023-06-22T00:40:29;22.70;85.30
32217;DHT22;67098;51.140;4.088;2023-06-22T00:42:55;22.70;85.20
32217;DHT22;67098;51.140;4.088;2023-06-22T00:45:22;22.70;85.10
32217;DHT22;67098;51.140;4.088;2023-06-22T00:47:53;22.60;85.50
32217;DHT22;67098;51.140;4.088;2023-06-22T00:50:23;22.60;85.50
32217;DHT22;67098;51.140;4.088;2023-06-22T00:52:56;22.60;85.30
32217;DHT22;67098;51.140;4.088;2023-06-22T00:55:24;22.50;85.80
32217;DHT22;67098;51.140;4.088;2023-06-22T00:57:52;22.50;85.80
32217;DHT22;67098;51.140;4.088;2023-06-22T01:00:22;22.60;86.10
32217;DHT22;67098;51.140;4.088;2023-06-22T01:02:50;22.50;86.20
32217;DHT22;67098;51.140;4.088;2023-06-22T01:05:17;22.50;86.40
32217;DHT22;67098;51.140;4.088;2023-06-22T01:16:07;22.40;86.40
32217;DHT22;67098;51.140;4.088;2023-06-22T01:18:35;22.40;86.30
32217;DHT22;67098;51.140;4.088;2023-06-22T01:21:04;22.40;86.50
32217;DHT22;67098;51.140;4.088;2023-06-22T01:26:28;22.30;86.60
32217;DHT22;67098;51.140;4.088;2023-06-22T01:28:59;22.30;86.70
32217;DHT22;67098;51.140;4.088;2023-06-22T01:31:27;22.20;87.40
32217;DHT22;67098;51.140;4.088;2023-06-22T01:34:05;22.10;87.40
32217;DHT22;67098;51.140;4.088;2023-06-22T01:36:32;22.20;87.20
32217;DHT22;67098;51.140;4.088;2023-06-22T01:38:59;22.10;88.00
32217;DHT22;67098;51.140;4.088;2023-06-22T01:41:29;22.00;88.00
32217;DHT22;67098;51.140;4.088;2023-06-22T01:43:55;22.10;88.00
32217;DHT22;67098;51.140;4.088;2023-06-22T01:46:22;22.10;87.60
32217;DHT22;67098;51.140;4.088;2023-06-22T01:48:48;22.00;87.80
32217;DHT22;67098;51.140;4.088;2023-06-22T01:51:15;22.10;87.70
32217;DHT22;67098;51.140;4.088;2023-06-22T01:53:41;21.90;88.10
32217;DHT22;67098;51.140;4.088;2023-06-22T01:56:08;21.90;88.20
32217;DHT22;67098;51.140;4.088;2023-06-22T01:58:36;21.90;88.60
32217;DHT22;67098;51.140;4.088;2023-06-22T02:01:11;21.90;88.80
32217;DHT22;67098;51.140;4.088;2023-06-22T02:03:42;21.70;89.70
32217;DHT22;67098;51.140;4.088;2023-06-22T02:06:23;21.60;89.70
32217;DHT22;67098;51.140;4.088;2023-06-22T02:08:55;21.70;89.10
32217;DHT22;67098;51.140;4.088;2023-06-22T02:11:23;21.70;89.10
32217;DHT22;67098;51.140;4.088;2023-06-22T02:13:51;21.70;89.10
32217;DHT22;67098;51.140;4.088;2023-06-22T02:16:18;21.70;88.90
32217;DHT22;67098;51.140;4.088;2023-06-22T02:18:48;21.70;88.90
32217;DHT22;67098;51.140;4.088;2023-06-22T02:21:17;21.60;89.00
32217;DHT22;67098;51.140;4.088;2023-06-22T02:23:42;21.50;89.40
32217;DHT22;67098;51.140;4.088;2023-06-22T02:26:08;21.60;89.20
32217;DHT22;67098;51.140;4.088;2023-06-22T02:28:34;21.60;89.10
32217;DHT22;67098;51.140;4.088;2023-06-22T02:31:00;21.50;89.00
32217;DHT22;67098;51.140;4.088;2023-06-22T02:33:25;21.30;89.50
32217;DHT22;67098;51.140;4.088;2023-06-22T02:35:51;21.30;89.90
32217;DHT22;67098;51.140;4.088;2023-06-22T02:38:17;21.30;90.00
32217;DHT22;67098;51.140;4.088;2023-06-22T02:40:43;21.20;89.90
32217;DHT22;67098;51.140;4.088;2023-06-22T02:43:08;21.20;90.00
32217;DHT22;67098;51.140;4.088;2023-06-22T02:45:34;21.20;90.10
32217;DHT22;67098;51.140;4.088;2023-06-22T02:48:00;21.10;90.10
32217;DHT22;67098;51.140;4.088;2023-06-22T02:50:26;21.10;90.10
32217;DHT22;67098;51.140;4.088;2023-06-22T02:52:51;21.20;89.70
32217;DHT22;67098;51.140;4.088;2023-06-22T02:55:17;21.20;90.00
32217;DHT22;67098;51.140;4.088;2023-06-22T02:57:43;21.20;89.70
32217;DHT22;67098;51.140;4.088;2023-06-22T03:00:10;21.30;89.50
32217;DHT22;67098;51.140;4.088;2023-06-22T03:02:47;21.10;89.80
32217;DHT22;67098;51.140;4.088;2023-06-22T03:05:14;21.10;90.00
32217;DHT22;67098;51.140;4.088;2023-06-22T03:07:41;21.10;89.80
32217;DHT22;67098;51.140;4.088;2023-06-22T03:10:11;21.20;89.60
32217;DHT22;67098;51.140;4.088;2023-06-22T03:12:37;21.10;90.00
32217;DHT22;67098;51.140;4.088;2023-06-22T03:15:06;21.10;89.60
32217;DHT22;67098;51.140;4.088;2023-06-22T03:17:33;21.10;89.70
32217;DHT22;67098;51.140;4.088;2023-06-22T03:19:59;21.10;89.70
32217;DHT22;67098;51.140;4.088;2023-06-22T03:22:25;21.10;89.50
32217;DHT22;67098;51.140;4.088;2023-06-22T03:24:50;21.20;89.40
32217;DHT22;67098;51.140;4.088;2023-06-22T03:27:16;21.00;90.00
32217;DHT22;67098;51.140;4.088;2023-06-22T03:29:42;20.90;90.10
32217;DHT22;67098;51.140;4.088;2023-06-22T03:32:08;20.90;90.00
32217;DHT22;67098;51.140;4.088;2023-06-22T03:34:34;21.00;89.70
32217;DHT22;67098;51.140;4.088;2023-06-22T03:37:01;21.00;89.80
32217;DHT22;67098;51.140;4.088;2023-06-22T03:39:28;21.10;89.60
32217;DHT22;67098;51.140;4.088;2023-06-22T03:41:54;21.00;89.70
32217;DHT22;67098;51.140;4.088;2023-06-22T03:44:20;21.00;90.00
32217;DHT22;67098;51.140;4.088;2023-06-22T03:46:45;21.00;89.90
32217;DHT22;67098;51.140;4.088;2023-06-22T03:49:11;21.00;89.70
32217;DHT22;67098;51.140;4.088;2023-06-22T03:51:37;21.00;89.90
32217;DHT22;67098;51.140;4.088;2023-06-22T03:54:03;21.00;90.00
32217;DHT22;67098;51.140;4.088;2023-06-22T03:56:29;20.80;90.30
32217;DHT22;67098;51.140;4.088;2023-06-22T03:58:54;20.80;90.30
32217;DHT22;67098;51.140;4.088;2023-06-22T04:01:20;20.90;90.20
32217;DHT22;67098;51.140;4.088;2023-06-22T04:03:46;20.90;90.30
32217;DHT22;67098;51.140;4.088;2023-06-22T04:06:14;20.90;90.00
32217;DHT22;67098;51.140;4.088;2023-06-22T04:08:39;20.90;90.00
32217;DHT22;67098;51.140;4.088;2023-06-22T04:11:06;21.00;90.00
32217;DHT22;67098;51.140;4.088;2023-06-22T04:13:32;21.00;89.70
32217;DHT22;67098;51.140;4.088;2023-06-22T04:15:57;21.10;89.60
32217;DHT22;67098;51.140;4.088;2023-06-22T04:18:23;21.00;89.80
32217;DHT22;67098;51.140;4.088;2023-06-22T04:20:49;21.10;89.60
32217;DHT22;67098;51.140;4.088;2023-06-22T04:23:15;21.20;89.40
32217;DHT22;67098;51.140;4.088;2023-06-22T04:25:41;21.20;89.50
32217;DHT22;67098;51.140;4.088;2023-06-22T04:28:06;21.20;89.40
32217;DHT22;67098;51.140;4.088;2023-06-22T04:30:37;21.30;89.60
32217;DHT22;67098;51.140;4.088;2023-06-22T04:33:13;21.30;89.40
32217;DHT22;67098;51.140;4.088;2023-06-22T04:35:38;21.40;89.30
32217;DHT22;67098;51.140;4.088;2023-06-22T04:38:07;21.40;89.00
32217;DHT22;67098;51.140;4.088;2023-06-22T04:40:33;21.50;88.80
32217;DHT22;67098;51.140;4.088;2023-06-22T04:42:59;21.60;88.60
32217;DHT22;67098;51.140;4.088;2023-06-22T04:45:28;21.60;88.50
32217;DHT22;67098;51.140;4.088;2023-06-22T04:47:55;21.70;88.60
32217;DHT22;67098;51.140;4.088;2023-06-22T04:50:21;21.80;88.40
32217;DHT22;67098;51.140;4.088;2023-06-22T04:52:47;21.90;88.40
32217;DHT22;67098;51.140;4.088;2023-06-22T04:55:14;22.00;88.30
32217;DHT22;67098;51.140;4.088;2023-06-22T04:57:46;22.10;88.10
32217;DHT22;67098;51.140;4.088;2023-06-22T05:00:18;22.10;88.00
32217;DHT22;67098;51.140;4.088;2023-06-22T05:02:48;22.20;87.70
32217;DHT22;67098;51.140;4.088;2023-06-22T05:05:14;22.30;87.60
32217;DHT22;67098;51.140;4.088;2023-06-22T05:07:45;22.40;87.00
32217;DHT22;67098;51.140;4.088;2023-06-22T05:10:14;22.60;86.60
32217;DHT22;67098;51.140;4.088;2023-06-22T05:12:40;22.70;86.50
32217;DHT22;67098;51.140;4.088;2023-06-22T05:15:08;22.90;86.50
32217;DHT22;67098;51.140;4.088;2023-06-22T05:17:34;23.00;85.80
32217;DHT22;67098;51.140;4.088;2023-06-22T05:20:01;23.10;85.20
32217;DHT22;67098;51.140;4.088;2023-06-22T05:22:27;23.20;84.80
32217;DHT22;67098;51.140;4.088;2023-06-22T05:24:52;23.30;84.70
32217;DHT22;67098;51.140;4.088;2023-06-22T05:27:18;23.30;84.30
32217;DHT22;67098;51.140;4.088;2023-06-22T05:29:44;23.40;84.10
32217;DHT22;67098;51.140;4.088;2023-06-22T05:32:09;23.30;84.20
32217;DHT22;67098;51.140;4.088;2023-06-22T05:34:35;23.30;84.10
32217;DHT22;67098;51.140;4.088;2023-06-22T05:37:02;23.30;84.30
32217;DHT22;67098;51.140;4.088;2023-06-22T05:39:27;23.30;84.50
32217;DHT22;67098;51.140;4.088;2023-06-22T05:41:53;23.20;84.90
32217;DHT22;67098;51.140;4.088;2023-06-22T05:44:19;23.30;84.90
32217;DHT22;67098;51.140;4.088;2023-06-22T05:46:45;23.30;85.00
32217;DHT22;67098;51.140;4.088;2023-06-22T05:49:13;23.40;85.10
32217;DHT22;67098;51.140;4.088;2023-06-22T05:51:39;23.50;84.90
32217;DHT22;67098;51.140;4.088;2023-06-22T05:54:05;23.60;84.90
32217;DHT22;67098;51.140;4.088;2023-06-22T05:56:30;23.60;84.70
32217;DHT22;67098;51.140;4.088;2023-06-22T05:58:56;23.70;84.50
32217;DHT22;67098;51.140;4.088;2023-06-22T06:01:22;23.70;84.50
32217;DHT22;67098;51.140;4.088;2023-06-22T06:03:48;23.70;85.40
32217;DHT22;67098;51.140;4.088;2023-06-22T06:06:16;23.70;85.50
32217;DHT22;67098;51.140;4.088;2023-06-22T06:08:42;23.90;85.50
32217;DHT22;67098;51.140;4.088;2023-06-22T06:11:08;24.00;85.10
32217;DHT22;67098;51.140;4.088;2023-06-22T06:13:33;24.10;84.50
32217;DHT22;67098;51.140;4.088;2023-06-22T06:15:59;24.20;84.30
32217;DHT22;67098;51.140;4.088;2023-06-22T06:18:25;24.30;84.00
32217;DHT22;67098;51.140;4.088;2023-06-22T06:20:51;24.50;83.70
32217;DHT22;67098;51.140;4.088;2023-06-22T06:23:16;24.60;83.10
32217;DHT22;67098;51.140;4.088;2023-06-22T06:25:42;24.70;82.60
32217;DHT22;67098;51.140;4.088;2023-06-22T06:28:08;24.80;82.70
32217;DHT22;67098;51.140;4.088;2023-06-22T06:30:33;24.90;82.60
32217;DHT22;67098;51.140;4.088;2023-06-22T06:33:00;24.90;82.80
32217;DHT22;67098;51.140;4.088;2023-06-22T06:35:26;25.00;82.60
32217;DHT22;67098;51.140;4.088;2023-06-22T06:37:52;25.10;82.30
32217;DHT22;67098;51.140;4.088;2023-06-22T06:40:18;25.10;82.40
32217;DHT22;67098;51.140;4.088;2023-06-22T06:42:45;25.10;82.10
32217;DHT22;67098;51.140;4.088;2023-06-22T06:45:15;25.10;82.50
32217;DHT22;67098;51.140;4.088;2023-06-22T06:47:41;25.10;82.50
32217;DHT22;67098;51.140;4.088;2023-06-22T06:50:07;25.10;83.40
32217;DHT22;67098;51.140;4.088;2023-06-22T06:52:33;25.10;83.50
32217;DHT22;67098;51.140;4.088;2023-06-22T06:54:59;25.10;83.50
32217;DHT22;67098;51.140;4.088;2023-06-22T06:57:25;25.10;83.60
32217;DHT22;67098;51.140;4.088;2023-06-22T06:59:55;25.10;83.90
32217;DHT22;67098;51.140;4.088;2023-06-22T07:02:22;25.20;83.80
32217;DHT22;67098;51.140;4.088;2023-06-22T07:04:48;25.20;83.70
32217;DHT22;67098;51.140;4.088;2023-06-22T07:07:14;25.20;83.70
32217;DHT22;67098;51.140;4.088;2023-06-22T07:09:40;25.30;83.70
32217;DHT22;67098;51.140;4.088;2023-06-22T07:12:06;25.30;83.50
32217;DHT22;67098;51.140;4.088;2023-06-22T07:14:32;25.30;83.40
32217;DHT22;67098;51.140;4.088;2023-06-22T07:16:58;25.30;83.20
32217;DHT22;67098;51.140;4.088;2023-06-22T07:19:25;25.30;83.50
32217;DHT22;67098;51.140;4.088;2023-06-22T07:21:52;25.30;83.40
32217;DHT22;67098;51.140;4.088;2023-06-22T07:24:17;25.20;83.90
32217;DHT22;67098;51.140;4.088;2023-06-22T07:26:46;25.20;84.00
32217;DHT22;67098;51.140;4.088;2023-06-22T07:29:12;25.10;84.00
32217;DHT22;67098;51.140;4.088;2023-06-22T07:31:37;25.10;84.10
32217;DHT22;67098;51.140;4.088;2023-06-22T07:34:05;25.00;84.20
32217;DHT22;67098;51.140;4.088;2023-06-22T07:36:31;25.00;84.60
32217;DHT22;67098;51.140;4.088;2023-06-22T07:38:57;24.90;84.80
32217;DHT22;67098;51.140;4.088;2023-06-22T07:41:22;24.90;85.00
32217;DHT22;67098;51.140;4.088;2023-06-22T07:43:48;25.00;85.00
32217;DHT22;67098;51.140;4.088;2023-06-22T07:46:14;25.10;84.90
32217;DHT22;67098;51.140;4.088;2023-06-22T07:48:40;25.10;85.10
32217;DHT22;67098;51.140;4.088;2023-06-22T07:51:07;25.10;85.10
32217;DHT22;67098;51.140;4.088;2023-06-22T07:53:33;25.20;85.00
32217;DHT22;67098;51.140;4.088;2023-06-22T07:55:59;25.30;84.90
32217;DHT22;67098;51.140;4.088;2023-06-22T07:58:25;25.30;84.70
32217;DHT22;67098;51.140;4.088;2023-06-22T08:00:50;25.30;84.80
32217;DHT22;67098;51.140;4.088;2023-06-22T08:03:16;25.30;85.00
32217;DHT22;67098;51.140;4.088;2023-06-22T08:05:42;25.40;84.90
32217;DHT22;67098;51.140;4.088;2023-06-22T08:08:07;25.40;84.90
32217;DHT22;67098;51.140;4.088;2023-06-22T08:10:33;25.40;84.50
32217;DHT22;67098;51.140;4.088;2023-06-22T08:12:59;25.50;84.10
32217;DHT22;67098;51.140;4.088;2023-06-22T08:15:26;25.50;84.00
32217;DHT22;67098;51.140;4.088;2023-06-22T08:17:52;25.50;83.80
32217;DHT22;67098;51.140;4.088;2023-06-22T08:20:18;25.50;82.20
32217;DHT22;67098;51.140;4.088;2023-06-22T08:22:43;25.50;81.50
32217;DHT22;67098;51.140;4.088;2023-06-22T08:25:10;25.40;80.60
32217;DHT22;67098;51.140;4.088;2023-06-22T08:27:36;25.40;81.30
32217;DHT22;67098;51.140;4.088;2023-06-22T08:30:02;25.50;81.30
32217;DHT22;67098;51.140;4.088;2023-06-22T08:32:29;25.60;81.20
32217;DHT22;67098;51.140;4.088;2023-06-22T08:34:56;25.70;81.00
32217;DHT22;67098;51.140;4.088;2023-06-22T08:37:22;25.70;80.30
32217;DHT22;67098;51.140;4.088;2023-06-22T08:39:50;25.70;80.30
32217;DHT22;67098;51.140;4.088;2023-06-22T08:42:16;25.70;79.20
32217;DHT22;67098;51.140;4.088;2023-06-22T08:44:42;25.80;79.40
32217;DHT22;67098;51.140;4.088;2023-06-22T08:47:07;25.70;79.00
32217;DHT22;67098;51.140;4.088;2023-06-22T08:49:33;25.70;79.10
32217;DHT22;67098;51.140;4.088;2023-06-22T08:51:59;25.80;79.50
32217;DHT22;67098;51.140;4.088;2023-06-22T08:54:25;25.70;79.00
32217;DHT22;67098;51.140;4.088;2023-06-22T08:56:50;25.60;79.40
32217;DHT22;67098;51.140;4.088;2023-06-22T08:59:16;25.60;79.80
32217;DHT22;67098;51.140;4.088;2023-06-22T09:01:42;25.60;79.90
32217;DHT22;67098;51.140;4.088;2023-06-22T09:04:11;25.60;79.70
32217;DHT22;67098;51.140;4.088;2023-06-22T09:06:37;25.60;79.90
32217;DHT22;67098;51.140;4.088;2023-06-22T09:09:11;25.70;79.70
32217;DHT22;67098;51.140;4.088;2023-06-22T09:11:37;25.70;79.50
32217;DHT22;67098;51.140;4.088;2023-06-22T09:14:03;25.70;79.60
32217;DHT22;67098;51.140;4.088;2023-06-22T09:16:29;25.60;79.40
32217;DHT22;67098;51.140;4.088;2023-06-22T09:18:55;25.60;79.80
32217;DHT22;67098;51.140;4.088;2023-06-22T09:21:21;25.60;80.40
32217;DHT22;67098;51.140;4.088;2023-06-22T09:23:47;25.60;80.00
32217;DHT22;67098;51.140;4.088;2023-06-22T09:26:17;25.60;80.20
32217;DHT22;67098;51.140;4.088;2023-06-22T09:28:43;25.60;80.60
32217;DHT22;67098;51.140;4.088;2023-06-22T09:31:09;25.60;80.80
32217;DHT22;67098;51.140;4.088;2023-06-22T09:33:36;25.50;80.90
32217;DHT22;67098;51.140;4.088;2023-06-22T09:36:02;25.50;81.50
32217;DHT22;67098;51.140;4.088;2023-06-22T09:38:27;25.40;81.40
32217;DHT22;67098;51.140;4.088;2023-06-22T09:40:53;25.50;81.60
32217;DHT22;67098;51.140;4.088;2023-06-22T09:43:19;25.50;81.80
32217;DHT22;67098;51.140;4.088;2023-06-22T09:45:45;25.50;82.00
32217;DHT22;67098;51.140;4.088;2023-06-22T09:48:10;25.40;82.10
32217;DHT22;67098;51.140;4.088;2023-06-22T09:50:36;25.30;82.50
32217;DHT22;67098;51.140;4.088;2023-06-22T09:53:02;25.30;82.80
32217;DHT22;67098;51.140;4.088;2023-06-22T09:55:28;25.30;83.20
32217;DHT22;67098;51.140;4.088;2023-06-22T09:57:54;25.30;84.00
32217;DHT22;67098;51.140;4.088;2023-06-22T10:00:21;25.30;84.30
32217;DHT22;67098;51.140;4.088;2023-06-22T10:02:48;25.20;84.30
32217;DHT22;67098;51.140;4.088;2023-06-22T10:05:14;25.20;84.20
32217;DHT22;67098;51.140;4.088;2023-06-22T10:07:40;25.10;84.60
32217;DHT22;67098;51.140;4.088;2023-06-22T10:10:09;25.10;84.80
32217;DHT22;67098;51.140;4.088;2023-06-22T10:12:35;25.10;85.40
32217;DHT22;67098;51.140;4.088;2023-06-22T10:15:01;25.10;85.50
32217;DHT22;67098;51.140;4.088;2023-06-22T10:17:27;25.10;85.70
32217;DHT22;67098;51.140;4.088;2023-06-22T10:19:52;25.10;85.90
32217;DHT22;67098;51.140;4.088;2023-06-22T10:22:18;25.10;86.00
32217;DHT22;67098;51.140;4.088;2023-06-22T10:24:44;25.10;86.10
32217;DHT22;67098;51.140;4.088;2023-06-22T10:27:11;25.10;87.30
32217;DHT22;67098;51.140;4.088;2023-06-22T10:29:37;25.10;87.70
32217;DHT22;67098;51.140;4.088;2023-06-22T10:32:03;25.00;87.70
32217;DHT22;67098;51.140;4.088;2023-06-22T10:34:29;25.10;88.30
32217;DHT22;67098;51.140;4.088;2023-06-22T10:36:55;25.10;88.50
32217;DHT22;67098;51.140;4.088;2023-06-22T10:39:21;25.00;88.70
32217;DHT22;67098;51.140;4.088;2023-06-22T10:41:46;25.00;88.80
32217;DHT22;67098;51.140;4.088;2023-06-22T10:44:12;24.90;89.10
32217;DHT22;67098;51.140;4.088;2023-06-22T10:46:39;24.90;90.20
32217;DHT22;67098;51.140;4.088;2023-06-22T10:49:04;24.90;89.00
32217;DHT22;67098;51.140;4.088;2023-06-22T10:51:30;24.80;89.90
32217;DHT22;67098;51.140;4.088;2023-06-22T10:53:57;24.80;90.00
32217;DHT22;67098;51.140;4.088;2023-06-22T10:56:23;24.80;90.30
32217;DHT22;67098;51.140;4.088;2023-06-22T10:58:50;24.80;90.40
32217;DHT22;67098;51.140;4.088;2023-06-22T11:01:15;24.90;90.10
32217;DHT22;67098;51.140;4.088;2023-06-22T11:03:41;24.90;89.70
32217;DHT22;67098;51.140;4.088;2023-06-22T11:06:06;24.80;90.10
32217;DHT22;67098;51.140;4.088;2023-06-22T11:08:32;24.70;88.80
32217;DHT22;67098;51.140;4.088;2023-06-22T11:10:58;24.60;87.40
32217;DHT22;67098;51.140;4.088;2023-06-22T11:13:24;24.50;88.20
32217;DHT22;67098;51.140;4.088;2023-06-22T11:15:50;24.40;88.30
32217;DHT22;67098;51.140;4.088;2023-06-22T11:18:16;24.40;89.70
32217;DHT22;67098;51.140;4.088;2023-06-22T11:20:42;24.40;90.60
32217;DHT22;67098;51.140;4.088;2023-06-22T11:23:08;24.30;90.70
32217;DHT22;67098;51.140;4.088;2023-06-22T11:25:34;24.20;90.70
32217;DHT22;67098;51.140;4.088;2023-06-22T11:28:03;24.10;90.80
32217;DHT22;67098;51.140;4.088;2023-06-22T11:30:30;24.10;91.10
32217;DHT22;67098;51.140;4.088;2023-06-22T11:32:59;24.00;91.40
32217;DHT22;67098;51.140;4.088;2023-06-22T11:35:25;24.00;91.60
32217;DHT22;67098;51.140;4.088;2023-06-22T11:37:51;24.00;91.40
32217;DHT22;67098;51.140;4.088;2023-06-22T11:40:17;24.10;91.40
32217;DHT22;67098;51.140;4.088;2023-06-22T11:42:43;24.10;91.50
32217;DHT22;67098;51.140;4.088;2023-06-22T11:45:09;24.10;91.20
32217;DHT22;67098;51.140;4.088;2023-06-22T11:47:35;24.10;91.20
32217;DHT22;67098;51.140;4.088;2023-06-22T11:50:02;24.10;91.50
32217;DHT22;67098;51.140;4.088;2023-06-22T11:52:28;24.20;91.30
32217;DHT22;67098;51.140;4.088;2023-06-22T11:54:54;24.10;90.90
32217;DHT22;67098;51.140;4.088;2023-06-22T11:57:20;24.10;90.80
32217;DHT22;67098;51.140;4.088;2023-06-22T11:59:45;24.00;90.70
32217;DHT22;67098;51.140;4.088;2023-06-22T12:02:11;24.00;90.70
32217;DHT22;67098;51.140;4.088;2023-06-22T12:04:37;23.90;90.90
32217;DHT22;67098;51.140;4.088;2023-06-22T12:07:03;23.90;91.20
32217;DHT22;67098;51.140;4.088;2023-06-22T12:09:29;23.90;91.10
32217;DHT22;67098;51.140;4.088;2023-06-22T12:11:55;23.90;91.10
32217;DHT22;67098;51.140;4.088;2023-06-22T12:14:21;23.90;91.10
32217;DHT22;67098;51.140;4.088;2023-06-22T12:16:46;23.80;90.90
32217;DHT22;67098;51.140;4.088;2023-06-22T12:19:12;23.90;91.00
32217;DHT22;67098;51.140;4.088;2023-06-22T12:21:38;23.90;91.00
32217;DHT22;67098;51.140;4.088;2023-06-22T12:24:06;23.80;91.00
32217;DHT22;67098;51.140;4.088;2023-06-22T12:26:31;23.90;90.90
32217;DHT22;67098;51.140;4.088;2023-06-22T12:28:57;24.00;90.90
32217;DHT22;67098;51.140;4.088;2023-06-22T12:31:23;24.10;91.00
32217;DHT22;67098;51.140;4.088;2023-06-22T12:33:49;24.30;91.10
32217;DHT22;67098;51.140;4.088;2023-06-22T12:36:14;24.40;90.80
32217;DHT22;67098;51.140;4.088;2023-06-22T12:38:42;24.50;90.60
32217;DHT22;67098;51.140;4.088;2023-06-22T12:41:07;24.60;90.60
32217;DHT22;67098;51.140;4.088;2023-06-22T12:43:33;24.50;90.30
32217;DHT22;67098;51.140;4.088;2023-06-22T12:45:59;24.60;90.20
32217;DHT22;67098;51.140;4.088;2023-06-22T12:48:26;24.60;90.20
32217;DHT22;67098;51.140;4.088;2023-06-22T12:50:53;24.60;90.30
32217;DHT22;67098;51.140;4.088;2023-06-22T12:53:18;24.60;90.50
32217;DHT22;67098;51.140;4.088;2023-06-22T12:55:44;24.60;90.60
32217;DHT22;67098;51.140;4.088;2023-06-22T12:58:10;24.70;90.60
32217;DHT22;67098;51.140;4.088;2023-06-22T13:00:37;24.70;90.60
32217;DHT22;67098;51.140;4.088;2023-06-22T13:03:03;24.70;90.70
32217;DHT22;67098;51.140;4.088;2023-06-22T13:05:29;24.60;90.90
32217;DHT22;67098;51.140;4.088;2023-06-22T13:07:56;24.60;91.10
32217;DHT22;67098;51.140;4.088;2023-06-22T13:10:21;24.50;91.20
32217;DHT22;67098;51.140;4.088;2023-06-22T13:12:47;24.40;91.30
32217;DHT22;67098;51.140;4.088;2023-06-22T13:15:13;24.50;91.40
32217;DHT22;67098;51.140;4.088;2023-06-22T13:17:38;24.50;91.30
32217;DHT22;67098;51.140;4.088;2023-06-22T13:20:05;24.50;91.20
32217;DHT22;67098;51.140;4.088;2023-06-22T13:22:32;24.50;91.50
32217;DHT22;67098;51.140;4.088;2023-06-22T13:24:59;24.50;91.50
32217;DHT22;67098;51.140;4.088;2023-06-22T13:27:25;24.40;91.60
32217;DHT22;67098;51.140;4.088;2023-06-22T13:29:52;24.30;91.80
32217;DHT22;67098;51.140;4.088;2023-06-22T13:32:17;24.30;91.90
32217;DHT22;67098;51.140;4.088;2023-06-22T13:34:43;24.20;92.00
32217;DHT22;67098;51.140;4.088;2023-06-22T13:37:09;24.20;92.00
32217;DHT22;67098;51.140;4.088;2023-06-22T13:39:35;24.10;91.90
32217;DHT22;67098;51.140;4.088;2023-06-22T13:42:00;24.00;92.20
32217;DHT22;67098;51.140;4.088;2023-06-22T13:44:26;24.00;92.40
32217;DHT22;67098;51.140;4.088;2023-06-22T13:46:55;23.90;92.60
32217;DHT22;67098;51.140;4.088;2023-06-22T13:49:21;23.90;92.50
32217;DHT22;67098;51.140;4.088;2023-06-22T13:51:47;23.80;92.50
32217;DHT22;67098;51.140;4.088;2023-06-22T13:54:14;23.90;92.50
32217;DHT22;67098;51.140;4.088;2023-06-22T13:56:40;23.80;92.50
32217;DHT22;67098;51.140;4.088;2023-06-22T13:59:05;23.70;92.60
32217;DHT22;67098;51.140;4.088;2023-06-22T14:01:35;23.70;92.50
32217;DHT22;67098;51.140;4.088;2023-06-22T14:04:01;23.60;92.70
32217;DHT22;67098;51.140;4.088;2023-06-22T14:06:28;23.60;92.80
32217;DHT22;67098;51.140;4.088;2023-06-22T14:08:53;23.60;92.90
32217;DHT22;67098;51.140;4.088;2023-06-22T14:11:19;23.60;93.00
32217;DHT22;67098;51.140;4.088;2023-06-22T14:13:45;23.60;93.10
32217;DHT22;67098;51.140;4.088;2023-06-22T14:16:11;23.60;93.20
32217;DHT22;67098;51.140;4.088;2023-06-22T14:18:36;23.60;93.20
32217;DHT22;67098;51.140;4.088;2023-06-22T14:21:02;23.60;93.20
32217;DHT22;67098;51.140;4.088;2023-06-22T14:23:28;23.60;93.20
32217;DHT22;67098;51.140;4.088;2023-06-22T14:25:53;23.60;93.20
32217;DHT22;67098;51.140;4.088;2023-06-22T14:28:19;23.60;93.20
32217;DHT22;67098;51.140;4.088;2023-06-22T14:30:45;23.60;93.30
32217;DHT22;67098;51.140;4.088;2023-06-22T14:33:12;23.50;93.40
32217;DHT22;67098;51.140;4.088;2023-06-22T14:35:38;23.50;93.50
32217;DHT22;67098;51.140;4.088;2023-06-22T14:38:03;23.50;93.40
32217;DHT22;67098;51.140;4.088;2023-06-22T14:40:29;23.40;93.50
32217;DHT22;67098;51.140;4.088;2023-06-22T14:42:55;23.30;93.50
32217;DHT22;67098;51.140;4.088;2023-06-22T14:45:22;23.40;93.30
32217;DHT22;67098;51.140;4.088;2023-06-22T14:47:48;23.40;93.40
32217;DHT22;67098;51.140;4.088;2023-06-22T14:50:14;23.40;93.60
32217;DHT22;67098;51.140;4.088;2023-06-22T14:52:40;23.40;93.60
32217;DHT22;67098;51.140;4.088;2023-06-22T14:55:06;23.40;93.60
32217;DHT22;67098;51.140;4.088;2023-06-22T14:57:32;23.40;93.80
32217;DHT22;67098;51.140;4.088;2023-06-22T14:59:57;23.40;93.80
32217;DHT22;67098;51.140;4.088;2023-06-22T15:02:23;23.30;93.90
32217;DHT22;67098;51.140;4.088;2023-06-22T15:04:49;23.30;94.00
32217;DHT22;67098;51.140;4.088;2023-06-22T15:07:15;23.30;94.10
32217;DHT22;67098;51.140;4.088;2023-06-22T15:09:41;23.30;94.30
32217;DHT22;67098;51.140;4.088;2023-06-22T15:12:08;23.40;94.40
32217;DHT22;67098;51.140;4.088;2023-06-22T15:14:40;23.50;94.50
32217;DHT22;67098;51.140;4.088;2023-06-22T15:17:07;23.60;94.50
32217;DHT22;67098;51.140;4.088;2023-06-22T15:19:35;23.70;94.50
32217;DHT22;67098;51.140;4.088;2023-06-22T15:22:03;23.80;94.40
32217;DHT22;67098;51.140;4.088;2023-06-22T15:24:29;23.90;94.50
32217;DHT22;67098;51.140;4.088;2023-06-22T15:26:54;24.00;94.20
32217;DHT22;67098;51.140;4.088;2023-06-22T15:29:20;24.10;94.20
32217;DHT22;67098;51.140;4.088;2023-06-22T15:31:46;24.20;94.20
32217;DHT22;67098;51.140;4.088;2023-06-22T15:34:13;24.30;94.10
32217;DHT22;67098;51.140;4.088;2023-06-22T15:36:39;24.30;94.00